sensor_id;sensor_type;location;lat;lon;timestamp;pressure;altitude;pressure_sealevel;temperature;humidity
36354;BME280;22383;51.114;13.666;2023-06-24T00:01:33;68746.16;;;14.11;100.00
36354;BME280;22383;51.114;13.666;2023-06-24T00:04:03;68745.75;;;14.13;100.00
36354;BME280;22383;51.114;13.666;2023-06-24T00:06:31;68723.91;;;14.12;100.00
36354;BME280;22383;51.114;13.666;2023-06-24T00:08:58;68746.34;;;14.13;100.00
36354;BME280;22383;51.114;13.666;2023-06-24T00:11:30;68751.28;;;14.15;100.00
36354;BME280;22383;51.114;13.666;2023-06-24T00:13:57;68753.56;;;14.17;100.00
36354;BME280;22383;51.114;13.666;2023-06-24T00:16:25;68753.56;;;14.17;100.00
36354;BME280;22383;51.114;13.666;2023-06-24T00:18:55;68754.13;;;14.18;100.00
36354;BME280;22383;51.114;13.666;2023-06-24T00:21:27;68750.31;;;14.17;100.00
36354;BME280;22383;51.114;13.666;2023-06-24T00:23:59;68756.22;;;14.17;100.00
36354;BME280;22383;51.114;13.666;2023-06-24T00:26:30;68754.13;;;14.18;100.00
36354;BME280;22383;51.114;13.666;2023-06-24T00:28:58;68754.69;;;14.18;100.00
36354;BME280;22383;51.114;13.666;2023-06-24T00:31:26;68756.41;;;14.20;100.00
36354;BME280;22383;51.114;13.666;2023-06-24T00:33:55;68760.75;;;14.22;100.00
36354;BME280;22383;51.114;13.666;2023-06-24T00:36:23;68752.22;;;14.21;100.00
36354;BME280;22383;51.114;13.666;2023-06-24T00:38:51;68762.47;;;14.23;100.00
36354;BME280;22383;51.114;13.666;2023-06-24T00:41:18;68762.06;;;14.25;100.00
36354;BME280;22383;51.114;13.666;2023-06-24T00:43:46;68762.25;;;14.28;100.00
36354;BME280;22383;51.114;13.666;2023-06-24T00:46:14;68740.41;;;14.27;100.00
36354;BME280;22383;51.114;13.666;2023-06-24T00:48:42;68764.94;;;14.28;100.00
36354;BME280;22383;51.114;13.666;2023-06-24T00:51:10;68763.41;;;14.29;100.00
36354;BME280;22383;51.114;13.666;2023-06-24T00:53:37;68768.34;;;14.31;100.00
36354;BME280;22383;51.114;13.666;2023-06-24T00:56:06;68771.19;;;14.33;100.00
36354;BME280;22383;51.114;13.666;2023-06-24T00:58:35;68770.78;;;14.35;100.00
36354;BME280;22383;51.114;13.666;2023-06-24T01:01:04;68772.50;;;14.37;100.00
36354;BME280;22383;51.114;13.666;2023-06-24T01:03:33;68773.44;;;14.35;100.00
36354;BME280;22383;51.114;13.666;2023-06-24T01:06:02;68775.16;;;14.37;100.00
36354;BME280;22383;51.114;13.666;2023-06-24T01:08:30;68781.78;;;14.41;100.00
36354;BME280;22383;51.114;13.666;2023-06-24T01:10:58;68778.19;;;14.42;100.00
36354;BME280;22383;51.114;13.666;2023-06-24T01:13:26;68779.31;;;14.43;100.00
36354;BME280;22383;51.114;13.666;2023-06-24T01:15:54;68779.88;;;14.44;100.00
36354;BME280;22383;51.114;13.666;2023-06-24T01:20:55;68789.38;;;14.50;100.00
36354;BME280;22383;51.114;13.666;2023-06-24T01:34:40;68792.78;;;14.53;100.00
36354;BME280;22383;51.114;13.666;2023-06-24T01:37:24;68794.50;;;14.54;100.00
36354;BME280;22383;51.114;13.666;2023-06-24T01:42:50;68799.06;;;14.59;100.00
36354;BME280;22383;51.114;13.666;2023-06-24T01:45:24;68796.97;;;14.59;100.00
36354;BME280;22383;51.114;13.666;2023-06-24T01:50:35;68801.91;;;14.61;100.00
36354;BME280;22383;51.114;13.666;2023-06-24T01:53:06;68804.00;;;14.61;100.00
36354;BME280;22383;51.114;13.666;2023-06-24T01:55:37;68801.34;;;14.61;100.00
36354;BME280;22383;51.114;13.666;2023-06-24T01:58:06;68799.06;;;14.59;100.00
36354;BME280;22383;51.114;13.666;2023-06-24T02:00:37;68801.50;;;14.63;100.00
36354;BME280;22383;51.114;13.666;2023-06-24T02:03:06;68800.94;;;14.63;100.00
36354;BME280;22383;51.114;13.666;2023-06-24T02:05:36;68804.19;;;14.63;100.00
36354;BME280;22383;51.114;13.666;2023-06-24T02:08:09;68779.66;;;14.63;100.00
36354;BME280;22383;51.114;13.666;2023-06-24T02:10:38;68807.41;;;14.64;100.00
36354;BME280;22383;51.114;13.666;2023-06-24T02:13:08;68804.19;;;14.63;100.00
36354;BME280;22383;51.114;13.666;2023-06-24T02:15:38;68800.38;;;14.62;100.00
36354;BME280;22383;51.114;13.666;2023-06-24T02:18:08;68799.81;;;14.62;100.00
36354;BME280;22383;51.114;13.666;2023-06-24T02:20:38;68804.19;;;14.63;100.00
36354;BME280;22383;51.114;13.666;2023-06-24T02:23:08;68807.59;;;14.66;100.00
36354;BME280;22383;51.114;13.666;2023-06-24T02:25:37;68780.78;;;14.64;100.00
36354;BME280;22383;51.114;13.666;2023-06-24T02:28:07;68802.47;;;14.62;100.00
36354;BME280;22383;51.114;13.666;2023-06-24T02:30:37;68777.38;;;14.61;100.00
36354;BME280;22383;51.114;13.666;2023-06-24T02:33:05;68799.06;;;14.59;100.00
36354;BME280;22383;51.114;13.666;2023-06-24T02:35:34;68798.28;;;14.55;100.00
36354;BME280;22383;51.114;13.666;2023-06-24T02:38:02;68795.63;;;14.55;100.00
36354;BME280;22383;51.114;13.666;2023-06-24T02:40:31;68799.41;;;14.56;100.00
36354;BME280;22383;51.114;13.666;2023-06-24T02:43:02;68790.69;;;14.53;100.00
36354;BME280;22383;51.114;13.666;2023-06-24T02:45:30;68787.28;;;14.50;100.00
36354;BME280;22383;51.114;13.666;2023-06-24T02:47:59;68789.00;;;14.52;100.00
36354;BME280;22383;51.114;13.666;2023-06-24T02:50:32;68786.31;;;14.52;100.00
36354;BME280;22383;51.114;13.666;2023-06-24T02:53:01;68790.34;;;14.48;100.00
36354;BME280;22383;51.114;13.666;2023-06-24T02:55:35;68791.66;;;14.52;100.00
36354;BME280;22383;51.114;13.666;2023-06-24T02:58:05;68785.56;;;14.49;100.00
36354;BME280;22383;51.114;13.666;2023-06-24T03:00:49;68786.53;;;14.47;100.00
36354;BME280;22383;51.114;13.666;2023-06-24T03:03:23;68779.31;;;14.43;100.00
36354;BME280;22383;51.114;13.666;2023-06-24T03:05:55;68780.09;;;14.39;100.00
36354;BME280;22383;51.114;13.666;2023-06-24T03:08:29;68771.75;;;14.34;100.00
36354;BME280;22383;51.114;13.666;2023-06-24T03:10:57;68768.34;;;14.31;100.00
36354;BME280;22383;51.114;13.666;2023-06-24T03:13:29;68765.50;;;14.28;100.00
36354;BME280;22383;51.114;13.666;2023-06-24T03:16:14;68762.66;;;14.26;100.00
36354;BME280;22383;51.114;13.666;2023-06-24T03:18:52;68759.25;;;14.23;100.00
36354;BME280;22383;51.114;13.666;2023-06-24T03:21:20;68750.31;;;14.17;100.00
36354;BME280;22383;51.114;13.666;2023-06-24T03:23:50;68751.28;;;14.15;100.00
36354;BME280;22383;51.114;13.666;2023-06-24T03:26:17;68753.94;;;14.15;100.00
36354;BME280;22383;51.114;13.666;2023-06-24T03:28:46;68746.75;;;14.11;100.00
36354;BME280;22383;51.114;13.666;2023-06-24T03:31:16;68746.75;;;14.11;100.00
36354;BME280;22383;51.114;13.666;2023-06-24T03:33:44;68741.22;;;14.09;100.00
36354;BME280;22383;51.114;13.666;2023-06-24T03:36:15;68740.09;;;14.08;100.00
36354;BME280;22383;51.114;13.666;2023-06-24T03:38:44;68741.63;;;14.07;100.00
36354;BME280;22383;51.114;13.666;2023-06-24T03:41:12;68737.63;;;14.03;100.00
36354;BME280;22383;51.114;13.666;2023-06-24T03:43:40;68735.53;;;14.04;100.00
36354;BME280;22383;51.114;13.666;2023-06-24T03:46:11;68739.34;;;14.05;100.00
36354;BME280;22383;51.114;13.666;2023-06-24T03:48:39;68717.13;;;14.06;100.00
36354;BME280;22383;51.114;13.666;2023-06-24T03:51:07;68745.03;;;14.10;100.00
36354;BME280;22383;51.114;13.666;2023-06-24T03:53:36;68745.78;;;14.06;100.00
36354;BME280;22383;51.114;13.666;2023-06-24T03:56:05;68737.06;;;14.03;100.00
36354;BME280;22383;51.114;13.666;2023-06-24T03:58:33;68743.31;;;14.08;100.00
36354;BME280;22383;51.114;13.666;2023-06-24T04:01:01;68745.03;;;14.10;100.00
36354;BME280;22383;51.114;13.666;2023-06-24T04:03:29;68741.78;;;14.09;100.00
36354;BME280;22383;51.114;13.666;2023-06-24T04:05:59;68743.88;;;14.09;100.00
36354;BME280;22383;51.114;13.666;2023-06-24T04:08:29;68724.47;;;14.13;100.00
36354;BME280;22383;51.114;13.666;2023-06-24T04:10:59;68745.75;;;14.13;100.00
36354;BME280;22383;51.114;13.666;2023-06-24T04:13:27;68748.06;;;14.15;100.00
36354;BME280;22383;51.114;13.666;2023-06-24T04:15:55;68756.97;;;14.21;100.00
36354;BME280;22383;51.114;13.666;2023-06-24T04:18:23;68755.44;;;14.22;100.00
36354;BME280;22383;51.114;13.666;2023-06-24T04:20:50;68756.56;;;14.23;100.00
36354;BME280;22383;51.114;13.666;2023-06-24T04:23:18;68754.47;;;14.23;100.00
36354;BME280;22383;51.114;13.666;2023-06-24T04:25:45;68758.84;;;14.25;100.00
36354;BME280;22383;51.114;13.666;2023-06-24T04:28:13;68759.25;;;14.23;100.00
36354;BME280;22383;51.114;13.666;2023-06-24T04:30:40;68746.53;;;14.16;100.00
36354;BME280;22383;51.114;13.666;2023-06-24T04:33:09;68753.00;;;14.17;100.00
36354;BME280;22383;51.114;13.666;2023-06-24T04:35:37;68754.13;;;14.18;100.00
36354;BME280;22383;51.114;13.666;2023-06-24T04:38:05;68765.09;;;14.30;100.00
36354;BME280;22383;51.114;13.666;2023-06-24T04:40:33;68769.66;;;14.34;100.00
36354;BME280;22383;51.114;13.666;2023-06-24T04:43:00;68786.13;;;14.49;100.00
36354;BME280;22383;51.114;13.666;2023-06-24T04:45:27;68808.38;;;14.62;100.00
36354;BME280;22383;51.114;13.666;2023-06-24T04:47:55;68814.06;;;14.67;100.00
36354;BME280;22383;51.114;13.666;2023-06-24T04:50:22;68811.75;;;14.72;100.00
36354;BME280;22383;51.114;13.666;2023-06-24T04:52:54;68801.91;;;14.61;100.00
36354;BME280;22383;51.114;13.666;2023-06-24T04:55:22;68801.91;;;14.61;100.00
36354;BME280;22383;51.114;13.666;2023-06-24T04:57:50;68793.53;;;14.56;100.00
36354;BME280;22383;51.114;13.666;2023-06-24T05:00:18;68796.41;;;14.59;100.00
36354;BME280;22383;51.114;13.666;2023-06-24T05:02:45;68803.78;;;14.65;100.00
36354;BME280;22383;51.114;13.666;2023-06-24T05:05:16;68794.69;;;14.57;100.00
36354;BME280;22383;51.114;13.666;2023-06-24T05:07:47;68795.25;;;14.57;100.00
36354;BME280;22383;51.114;13.666;2023-06-24T05:10:15;68800.19;;;14.60;100.00
36354;BME280;22383;51.114;13.666;2023-06-24T05:12:43;68799.06;;;14.59;100.00
36354;BME280;22383;51.114;13.666;2023-06-24T05:15:11;68807.75;;;14.69;100.00
36354;BME280;22383;51.114;13.666;2023-06-24T05:17:39;68804.94;;;14.66;100.00
36354;BME280;22383;51.114;13.666;2023-06-24T05:20:08;68800.75;;;14.60;100.00
36354;BME280;22383;51.114;13.666;2023-06-24T05:22:35;68807.97;;;14.64;100.00
36354;BME280;22383;51.114;13.666;2023-06-24T05:25:05;68798.69;;;14.61;100.00
36354;BME280;22383;51.114;13.666;2023-06-24T05:27:33;68804.19;;;14.63;100.00
36354;BME280;22383;51.114;13.666;2023-06-24T05:30:06;68779.09;;;14.62;100.00
36354;BME280;22383;51.114;13.666;2023-06-24T05:32:34;68802.47;;;14.62;100.00
36354;BME280;22383;51.114;13.666;2023-06-24T05:35:02;68800.19;;;14.60;100.00
36354;BME280;22383;51.114;13.666;2023-06-24T05:37:30;68772.22;;;14.56;100.00
36354;BME280;22383;51.114;13.666;2023-06-24T05:40:00;68795.25;;;14.57;100.00
36354;BME280;22383;51.114;13.666;2023-06-24T05:42:28;68791.66;;;14.52;100.00
36354;BME280;22383;51.114;13.666;2023-06-24T05:44:58;68797.53;;;14.60;100.00
36354;BME280;22383;51.114;13.666;2023-06-24T05:47:26;68796.75;;;14.56;100.00
36354;BME280;22383;51.114;13.666;2023-06-24T05:49:54;68800.00;;;14.57;100.00
36354;BME280;22383;51.114;13.666;2023-06-24T05:52:21;68798.69;;;14.61;100.00
36354;BME280;22383;51.114;13.666;2023-06-24T05:54:51;68798.69;;;14.61;100.00
36354;BME280;22383;51.114;13.666;2023-06-24T05:57:19;68785.00;;;14.48;100.00
36354;BME280;22383;51.114;13.666;2023-06-24T05:59:47;68782.38;;;14.41;100.00
36354;BME280;22383;51.114;13.666;2023-06-24T06:02:14;68776.69;;;14.36;100.00
36354;BME280;22383;51.114;13.666;2023-06-24T06:04:42;68771.94;;;14.36;100.00
36354;BME280;22383;51.114;13.666;2023-06-24T06:07:09;68771.75;;;14.34;100.00
36354;BME280;22383;51.114;13.666;2023-06-24T06:09:37;68775.16;;;14.37;100.00
36354;BME280;22383;51.114;13.666;2023-06-24T06:12:05;68770.78;;;14.35;100.00
36354;BME280;22383;51.114;13.666;2023-06-24T06:14:41;68782.38;;;14.41;100.00
36354;BME280;22383;51.114;13.666;2023-06-24T06:17:57;68783.88;;;14.47;100.00
36354;BME280;22383;51.114;13.666;2023-06-24T06:20:30;68789.00;;;14.52;100.00
36354;BME280;22383;51.114;13.666;2023-06-24T06:26:41;68767.38;;;14.32;100.00
36354;BME280;22383;51.114;13.666;2023-06-24T06:29:12;68758.84;;;14.25;100.00
36354;BME280;22383;51.114;13.666;2023-06-24T06:31:40;68757.13;;;14.23;100.00
36354;BME280;22383;51.114;13.666;2023-06-24T06:34:08;68762.06;;;14.25;100.00
36354;BME280;22383;51.114;13.666;2023-06-24T06:36:36;68770.81;;;14.28;100.00
36354;BME280;22383;51.114;13.666;2023-06-24T06:39:04;68761.50;;;14.25;100.00
36354;BME280;22383;51.114;13.666;2023-06-24T06:45:59;68740.97;;;14.28;100.00
36354;BME280;22383;51.114;13.666;2023-06-24T06:52:47;68764.53;;;14.30;100.00
36354;BME280;22383;51.114;13.666;2023-06-24T07:21:06;68788.78;;;14.49;100.00
36354;BME280;22383;51.114;13.666;2023-06-24T08:40:58;69017.22;;;16.58;100.00
36354;BME280;22383;51.114;13.666;2023-06-24T08:43:29;69007.91;;;16.47;100.00
36354;BME280;22383;51.114;13.666;2023-06-24T08:46:41;69034.50;;;16.69;100.00
36354;BME280;22383;51.114;13.666;2023-06-24T08:50:46;69016.91;;;16.77;100.00
36354;BME280;22383;51.114;13.666;2023-06-24T08:54:33;69039.25;;;16.75;100.00
36354;BME280;22383;51.114;13.666;2023-06-24T08:57:23;69079.88;;;17.14;100.00
36354;BME280;22383;51.114;13.666;2023-06-24T09:00:20;69097.22;;;17.49;100.00
36354;BME280;22383;51.114;13.666;2023-06-24T09:06:44;69122.44;;;17.50;100.00
36354;BME280;22383;51.114;13.666;2023-06-24T09:09:44;69152.06;;;17.77;100.00
36354;BME280;22383;51.114;13.666;2023-06-24T09:12:14;69153.22;;;17.78;100.00
36354;BME280;22383;51.114;13.666;2023-06-24T09:15:02;69134.41;;;17.61;100.00
36354;BME280;22383;51.114;13.666;2023-06-24T09:21:14;69147.69;;;17.75;100.00
36354;BME280;22383;51.114;13.666;2023-06-24T09:23:52;69135.41;;;17.84;100.00
36354;BME280;22383;51.114;13.666;2023-06-24T09:26:24;69106.50;;;17.36;100.00
36354;BME280;22383;51.114;13.666;2023-06-24T09:28:53;69128.16;;;17.55;100.00
36354;BME280;22383;51.114;13.666;2023-06-24T09:31:24;69153.09;;;18.00;100.00
36354;BME280;22383;51.114;13.666;2023-06-24T09:33:52;69235.50;;;18.55;100.00
36354;BME280;22383;51.114;13.666;2023-06-24T09:36:27;69251.31;;;18.66;100.00
36354;BME280;22383;51.114;13.666;2023-06-24T09:39:05;69270.72;;;18.84;100.00
36354;BME280;22383;51.114;13.666;2023-06-24T09:41:51;69310.41;;;19.24;100.00
36354;BME280;22383;51.114;13.666;2023-06-24T09:44:18;69314.06;;;19.23;100.00
36354;BME280;22383;51.114;13.666;2023-06-24T09:46:46;69278.53;;;19.13;100.00
36354;BME280;22383;51.114;13.666;2023-06-24T09:49:14;69269.00;;;18.82;100.00
36354;BME280;22383;51.114;13.666;2023-06-24T09:51:51;69183.88;;;18.27;100.00
36354;BME280;22383;51.114;13.666;2023-06-24T09:54:27;69234.78;;;18.51;100.00
36354;BME280;22383;51.114;13.666;2023-06-24T09:57:02;69283.44;;;18.98;100.00
36354;BME280;22383;51.114;13.666;2023-06-24T09:59:33;69262.88;;;18.79;100.00
36354;BME280;22383;51.114;13.666;2023-06-24T10:02:02;69224.50;;;18.42;100.00
36354;BME280;22383;51.114;13.666;2023-06-24T10:04:32;69218.22;;;18.37;100.00
36354;BME280;22383;51.114;13.666;2023-06-24T10:07:00;69237.44;;;18.76;100.00
36354;BME280;22383;51.114;13.666;2023-06-24T10:09:30;69277.94;;;19.12;100.00
36354;BME280;22383;51.114;13.666;2023-06-24T10:11:57;69286.88;;;19.01;100.00
36354;BME280;22383;51.114;13.666;2023-06-24T10:14:25;69217.09;;;18.36;100.00
36354;BME280;22383;51.114;13.666;2023-06-24T10:17:01;69173.19;;;17.96;100.00
36354;BME280;22383;51.114;13.666;2023-06-24T10:19:29;69177.94;;;18.03;100.00
36354;BME280;22383;51.114;13.666;2023-06-24T10:21:59;69210.06;;;18.51;100.00
36354;BME280;22383;51.114;13.666;2023-06-24T10:24:51;69262.16;;;18.76;100.00
36354;BME280;22383;51.114;13.666;2023-06-24T10:27:27;69264.59;;;18.81;100.00
36354;BME280;22383;51.114;13.666;2023-06-24T10:30:03;69290.28;;;19.04;100.00
36354;BME280;22383;51.114;13.666;2023-06-24T10:32:41;69238.19;;;18.55;100.00
36354;BME280;22383;51.114;13.666;2023-06-24T10:35:26;69164.47;;;18.10;100.00
36354;BME280;22383;51.114;13.666;2023-06-24T10:38:22;69199.25;;;18.41;100.00
36354;BME280;22383;51.114;13.666;2023-06-24T10:40:50;69228.34;;;18.67;100.00
36354;BME280;22383;51.114;13.666;2023-06-24T10:45:52;69205.28;;;18.27;100.00
36354;BME280;22383;51.114;13.666;2023-06-24T10:48:21;69229.22;;;18.49;100.00
36354;BME280;22383;51.114;13.666;2023-06-24T10:50:49;69286.28;;;19.00;100.00
36354;BME280;22383;51.114;13.666;2023-06-24T10:53:17;69313.31;;;19.44;100.00
36354;BME280;22383;51.114;13.666;2023-06-24T10:55:49;69347.00;;;19.74;100.00
36354;BME280;22383;51.114;13.666;2023-06-24T10:58:16;69342.38;;;19.53;100.00
36354;BME280;22383;51.114;13.666;2023-06-24T11:00:44;69370.00;;;19.73;100.00
36354;BME280;22383;51.114;13.666;2023-06-24T11:03:14;69368.69;;;19.94;100.00
36354;BME280;22383;51.114;13.666;2023-06-24T11:05:45;69362.41;;;19.88;100.00
36354;BME280;22383;51.114;13.666;2023-06-24T11:29:59;69412.25;;;20.11;100.00
36354;BME280;22383;51.114;13.666;2023-06-24T11:32:38;69370.00;;;19.73;100.00
36354;BME280;22383;51.114;13.666;2023-06-24T11:35:08;69393.00;;;19.96;100.00
36354;BME280;22383;51.114;13.666;2023-06-24T11:42:48;69466.88;;;20.82;100.00
36354;BME280;22383;51.114;13.666;2023-06-24T11:46:07;69486.69;;;20.81;100.00
36354;BME280;22383;51.114;13.666;2023-06-24T11:48:41;69451.09;;;20.46;100.00
36354;BME280;22383;51.114;13.666;2023-06-24T12:04:14;69478.13;;;20.73;100.00
36354;BME280;22383;51.114;13.666;2023-06-24T12:06:42;69441.53;;;20.40;100.00
36354;BME280;22383;51.114;13.666;2023-06-24T12:09:11;69447.47;;;20.65;100.00
36354;BME280;22383;51.114;13.666;2023-06-24T12:11:40;69456.03;;;20.72;100.00
36354;BME280;22383;51.114;13.666;2023-06-24T12:14:07;69478.88;;;20.93;100.00
36354;BME280;22383;51.114;13.666;2023-06-24T12:16:35;69534.34;;;21.19;100.00
36354;BME280;22383;51.114;13.666;2023-06-24T12:19:02;69538.84;;;21.47;100.00
36354;BME280;22383;51.114;13.666;2023-06-24T12:21:30;69577.16;;;21.81;100.00
36354;BME280;22383;51.114;13.666;2023-06-24T12:23:57;69596.97;;;21.80;100.00
36354;BME280;22383;51.114;13.666;2023-06-24T12:26:25;69572.56;;;21.77;100.00
36354;BME280;22383;51.114;13.666;2023-06-24T12:28:55;69600.81;;;21.81;100.00
36354;BME280;22383;51.114;13.666;2023-06-24T12:31:24;69526.09;;;21.16;100.00
36354;BME280;22383;51.114;13.666;2023-06-24T12:33:53;69534.66;;;21.24;100.00
36354;BME280;22383;51.114;13.666;2023-06-24T12:36:21;69548.94;;;21.37;100.00
36354;BME280;22383;51.114;13.666;2023-06-24T12:38:49;69556.22;;;21.41;100.00
36354;BME280;22383;51.114;13.666;2023-06-24T12:41:16;69576.81;;;21.59;100.00
36354;BME280;22383;51.114;13.666;2023-06-24T12:43:50;69588.25;;;21.69;100.00
36354;BME280;22383;51.114;13.666;2023-06-24T12:46:25;69574.28;;;21.79;100.00
36354;BME280;22383;51.114;13.666;2023-06-24T12:48:53;69602.53;;;21.82;100.00
36354;BME280;22383;51.114;13.666;2023-06-24T12:51:23;69600.56;;;21.85;100.00
36354;BME280;22383;51.114;13.666;2023-06-24T12:53:51;69600.81;;;21.81;100.00
36354;BME280;22383;51.114;13.666;2023-06-24T12:56:18;69549.72;;;21.57;100.00
36354;BME280;22383;51.114;13.666;2023-06-24T12:58:49;69596.41;;;21.79;100.00
36354;BME280;22383;51.114;13.666;2023-06-24T13:01:20;69607.81;;;21.89;100.00
36354;BME280;22383;51.114;13.666;2023-06-24T13:03:48;69624.97;;;22.05;100.00
36354;BME280;22383;51.114;13.666;2023-06-24T13:06:15;69621.13;;;22.21;100.00
36354;BME280;22383;51.114;13.666;2023-06-24T13:08:42;69634.31;;;22.33;100.00
36354;BME280;22383;51.114;13.666;2023-06-24T13:11:10;69632.03;;;22.31;100.00
36354;BME280;22383;51.114;13.666;2023-06-24T13:13:38;69669.59;;;22.45;100.00
36354;BME280;22383;51.114;13.666;2023-06-24T13:16:05;69684.28;;;22.56;100.00
36354;BME280;22383;51.114;13.666;2023-06-24T13:18:33;69663.47;;;22.59;100.00
36354;BME280;22383;51.114;13.666;2023-06-24T13:21:00;69654.31;;;22.51;100.00
36354;BME280;22383;51.114;13.666;2023-06-24T13:23:42;69617.13;;;22.17;100.00
36354;BME280;22383;51.114;13.666;2023-06-24T13:26:10;69622.69;;;22.03;100.00
36354;BME280;22383;51.114;13.666;2023-06-24T13:28:38;69638.13;;;22.17;100.00
36354;BME280;22383;51.114;13.666;2023-06-24T13:31:06;69632.03;;;22.31;100.00
36354;BME280;22383;51.114;13.666;2023-06-24T13:33:34;69663.31;;;22.39;100.00
36354;BME280;22383;51.114;13.666;2023-06-24T13:36:01;69641.38;;;22.17;100.00
36354;BME280;22383;51.114;13.666;2023-06-24T13:38:30;69636.41;;;22.15;100.00
36354;BME280;22383;51.114;13.666;2023-06-24T13:40:59;69629.16;;;22.28;100.00
36354;BME280;22383;51.114;13.666;2023-06-24T13:43:27;69675.88;;;22.51;100.00
36354;BME280;22383;51.114;13.666;2023-06-24T13:45:54;69658.16;;;22.35;100.00
36354;BME280;22383;51.114;13.666;2023-06-24T13:48:28;69684.47;;;22.58;100.00
36354;BME280;22383;51.114;13.666;2023-06-24T13:50:55;69708.91;;;22.78;100.00
36354;BME280;22383;51.114;13.666;2023-06-24T13:53:23;69718.19;;;22.89;100.00
36354;BME280;22383;51.114;13.666;2023-06-24T13:55:51;69717.47;;;22.85;100.00
36354;BME280;22383;51.114;13.666;2023-06-24T13:58:21;69696.06;;;22.88;100.00
36354;BME280;22383;51.114;13.666;2023-06-24T14:00:49;69678.34;;;22.72;100.00
36354;BME280;22383;51.114;13.666;2023-06-24T14:03:32;69675.72;;;22.48;100.00
36354;BME280;22383;51.114;13.666;2023-06-24T14:06:22;69688.47;;;22.62;100.00
36354;BME280;22383;51.114;13.666;2023-06-24T14:08:50;69690.34;;;22.83;100.00
36354;BME280;22383;51.114;13.666;2023-06-24T14:11:18;69727.38;;;22.97;100.00
36354;BME280;22383;51.114;13.666;2023-06-24T14:13:46;69691.47;;;22.84;100.00
36354;BME280;22383;51.114;13.666;2023-06-24T14:16:14;69689.75;;;22.82;100.00
36354;BME280;22383;51.114;13.666;2023-06-24T14:18:44;69685.19;;;22.78;100.00
36354;BME280;22383;51.114;13.666;2023-06-24T14:21:12;69702.75;;;22.75;100.00
36354;BME280;22383;51.114;13.666;2023-06-24T14:23:40;69693.78;;;22.86;100.00
36354;BME280;22383;51.114;13.666;2023-06-24T14:26:14;69719.34;;;22.90;100.00
36354;BME280;22383;51.114;13.666;2023-06-24T14:28:45;69743.06;;;23.06;100.00
36354;BME280;22383;51.114;13.666;2023-06-24T14:31:14;69736.53;;;23.05;100.00
36354;BME280;22383;51.114;13.666;2023-06-24T14:33:42;69750.66;;;23.15;100.00
36354;BME280;22383;51.114;13.666;2023-06-24T14:36:10;69742.38;;;23.30;100.00
36354;BME280;22383;51.114;13.666;2023-06-24T14:38:37;69768.41;;;23.31;100.00
36354;BME280;22383;51.114;13.666;2023-06-24T14:41:05;69741.69;;;23.10;100.00
36354;BME280;22383;51.114;13.666;2023-06-24T14:43:34;69706.34;;;22.97;100.00
36354;BME280;22383;51.114;13.666;2023-06-24T14:46:02;69718.38;;;23.08;100.00
36354;BME280;22383;51.114;13.666;2023-06-24T14:48:30;69765.53;;;23.29;100.00
36354;BME280;22383;51.114;13.666;2023-06-24T14:50:58;69758.41;;;23.44;100.00
36354;BME280;22383;51.114;13.666;2023-06-24T14:53:25;69770.41;;;23.55;100.00
36354;BME280;22383;51.114;13.666;2023-06-24T14:55:53;69778.44;;;23.62;100.00
36354;BME280;22383;51.114;13.666;2023-06-24T14:58:21;69792.59;;;23.55;100.00
36354;BME280;22383;51.114;13.666;2023-06-24T15:00:48;69780.41;;;23.42;100.00
36354;BME280;22383;51.114;13.666;2023-06-24T15:03:16;69781.72;;;23.46;100.00
36354;BME280;22383;51.114;13.666;2023-06-24T15:05:47;69758.41;;;23.44;100.00
36354;BME280;22383;51.114;13.666;2023-06-24T15:08:15;69752.09;;;23.38;100.00
36354;BME280;22383;51.114;13.666;2023-06-24T15:10:42;69748.09;;;23.35;100.00
36354;BME280;22383;51.114;13.666;2023-06-24T15:13:10;69766.84;;;23.32;100.00
36354;BME280;22383;51.114;13.666;2023-06-24T15:15:37;69758.25;;;23.25;100.00
36354;BME280;22383;51.114;13.666;2023-06-24T15:18:05;69721.81;;;23.11;100.00
36354;BME280;22383;51.114;13.666;2023-06-24T15:20:34;69721.81;;;23.11;99.68
36354;BME280;22383;51.114;13.666;2023-06-24T15:23:05;69746.84;;;23.14;100.00
36354;BME280;22383;51.114;13.666;2023-06-24T15:25:33;69738.97;;;23.27;100.00
36354;BME280;22383;51.114;13.666;2023-06-24T15:28:02;69762.84;;;23.29;100.00
36354;BME280;22383;51.114;13.666;2023-06-24T15:30:30;69773.88;;;23.41;100.00
36354;BME280;22383;51.114;13.666;2023-06-24T15:32:57;69760.69;;;23.46;100.00
36354;BME280;22383;51.114;13.666;2023-06-24T15:35:25;69796.44;;;23.56;100.00
36354;BME280;22383;51.114;13.666;2023-06-24T15:37:52;69774.41;;;23.58;100.00
36354;BME280;22383;51.114;13.666;2023-06-24T15:40:20;69807.47;;;23.69;100.00
36354;BME280;22383;51.114;13.666;2023-06-24T15:42:47;69789.28;;;23.72;100.00
36354;BME280;22383;51.114;13.666;2023-06-24T15:45:15;69792.72;;;23.75;100.00
36354;BME280;22383;51.114;13.666;2023-06-24T15:47:42;69825.25;;;23.85;100.00
36354;BME280;22383;51.114;13.666;2023-06-24T15:50:10;69789.28;;;23.72;97.38
36354;BME280;22383;51.114;13.666;2023-06-24T15:52:37;69803.47;;;23.65;96.53
36354;BME280;22383;51.114;13.666;2023-06-24T15:55:05;69789.75;;;23.53;93.58
36354;BME280;22383;51.114;13.666;2023-06-24T15:57:33;69793.00;;;23.53;93.33
36354;BME280;22383;51.114;13.666;2023-06-24T16:00:00;69764.69;;;23.50;97.96
36354;BME280;22383;51.114;13.666;2023-06-24T16:02:31;69762.97;;;23.48;97.64
36354;BME280;22383;51.114;13.666;2023-06-24T16:04:58;69785.75;;;23.49;96.81